EDDB/SXF METAR and TAF weather

Enter ICAO airport designator
Station Type Date Time Source
EDDB METAR 2020/10/29 16:50 UTC NOAA

EDDB 291650Z 25010KT CAVOK 10/06 Q1015 NOSIG


Station Type Date Time Source
EDDB Decoded METAR 2020/10/29 16:50 UTC NOAA

Berlin-Schoenefeld, Germany (EDDB) 52-23N 013-31E 50M
Oct 29, 2020 - 12:50 PM EDT / 2020.10.29 1650 UTC
Wind: from the WSW (250 degrees) at 12 MPH (10 KT):0
Visibility: greater than 7 mile(s):0
Temperature: 50 F (10 C)
Dew Point: 42 F (6 C)
Relative Humidity: 76%
Pressure (altimeter): 29.97 in. Hg (1015 hPa)
ob: EDDB 291650Z 25010KT CAVOK 10/06 Q1015 NOSIG
cycle: 17

Station Type Date Time Source
EDDB TAF 2020/10/29 12:27 UTC NOAA

TAF TAF EDDB 291100Z 2912/3012 26015G25KT 9999 SCT030 PROB30
TEMPO 2912/2917 SHRA BKN020CB
BECMG 2914/2916 25010KT
BECMG 2920/2922 19008KT
BECMG 3003/3006 4500 -RA BKN010
TEMPO 3006/3012 2500 RADZ BKN004

Example: see airport list